Time;durP1;ratioP1;P1;durP2;ratioP2;P2;SDS_P1;SDS_P2;PMS_P1;PMS_P2;Temp;Humidity;BMP_temperature;BMP_pressure;BME280_temperature;BME280_humidity;BME280_pressure;Samples;Min_cycle;Max_cycle;Signal;HPM_P1;HPM_P2
2022/05/02 00:00:38;;;;;;;26.25;16.48;;;;;;;7.60;100.00;102120.00;5088243;28;20093;-83
2022/05/02 00:03:03;;;;;;;29.85;16.38;;;;;;;7.55;100.00;102123.00;5083151;28;20031;-83
2022/05/02 00:05:29;;;;;;;28.40;16.55;;;;;;;7.52;100.00;102111.72;5063278;28;20085;-83
2022/05/02 00:07:54;;;;;;;28.23;17.10;;;;;;;7.51;100.00;102112.69;5081933;28;20028;-82
2022/05/02 00:10:20;;;;;;;27.42;16.02;;;;;;;7.46;100.00;102108.53;5061557;28;20457;-83
2022/05/02 00:12:45;;;;;;;29.40;16.75;;;;;;;7.43;100.00;102113.22;5081025;28;20047;-83
2022/05/02 00:15:12;;;;;;;28.65;16.85;;;;;;;7.43;100.00;102111.44;5080413;28;20043;-83
2022/05/02 00:20:28;;;;;;;27.70;16.77;;;;;;;7.18;100.00;102101.69;5058882;28;20043;-83
2022/05/02 00:22:54;;;;;;;31.70;16.98;;;;;;;7.06;100.00;102106.06;5059954;28;20465;-83
2022/05/02 00:25:19;;;;;;;28.35;17.42;;;;;;;6.99;100.00;102104.78;5022954;28;20013;-83
2022/05/02 00:27:45;;;;;;;26.60;16.15;;;;;;;6.88;100.00;102096.72;5046988;28;20381;-83
2022/05/02 00:30:11;;;;;;;31.08;17.10;;;;;;;6.75;100.00;102096.69;5058985;28;20024;-83
2022/05/02 00:32:37;;;;;;;28.92;17.08;;;;;;;6.67;100.00;102093.69;5059963;28;20017;-83
2022/05/02 00:35:04;;;;;;;26.35;16.73;;;;;;;6.64;100.00;102093.94;5059466;28;20485;-83
2022/05/02 00:37:29;;;;;;;26.80;15.90;;;;;;;6.63;100.00;102089.56;5058703;28;20543;-83
2022/05/02 00:39:56;;;;;;;27.85;16.58;;;;;;;6.66;100.00;102092.03;5058821;28;20020;-83
2022/05/02 00:42:21;;;;;;;24.42;16.42;;;;;;;6.64;100.00;102094.78;5040925;28;20051;-83
2022/05/02 00:44:46;;;;;;;25.25;15.18;;;;;;;6.63;100.00;102087.75;5059198;28;20044;-83
2022/05/02 00:47:15;;;;;;;28.88;17.13;;;;;;;6.58;100.00;102081.91;5058892;28;20037;-82
2022/05/02 00:49:41;;;;;;;25.70;15.98;;;;;;;6.60;100.00;102088.00;5059859;28;20486;-82
2022/05/02 00:52:06;;;;;;;28.05;16.25;;;;;;;6.53;100.00;102084.91;5058536;28;20075;-82
2022/05/02 00:54:34;;;;;;;27.85;16.55;;;;;;;6.47;100.00;102077.34;5058473;28;20385;-83
2022/05/02 00:56:59;;;;;;;29.40;16.45;;;;;;;6.45;100.00;102081.03;5045027;28;20578;-83
2022/05/02 00:59:26;;;;;;;28.15;16.50;;;;;;;6.42;100.00;102086.59;5037878;28;20060;-83
2022/05/02 01:01:52;;;;;;;28.90;16.42;;;;;;;6.39;100.00;102079.66;5021354;28;20055;-83
2022/05/02 01:04:17;;;;;;;27.60;16.02;;;;;;;6.36;100.00;102085.16;5039163;28;20235;-83
2022/05/02 01:09:28;;;;;;;30.08;17.20;;;;;;;6.23;100.00;102082.50;5037961;28;20087;-83
2022/05/02 01:11:55;;;;;;;28.92;17.08;;;;;;;6.24;100.00;102083.34;5038463;28;20043;-83
2022/05/02 01:14:20;;;;;;;28.27;17.27;;;;;;;6.29;100.00;102082.06;5037451;28;20060;-83
2022/05/02 01:16:45;;;;;;;31.20;16.73;;;;;;;6.32;100.00;102084.53;5038761;28;20408;-83
2022/05/02 01:19:10;;;;;;;27.58;17.50;;;;;;;6.31;100.00;102074.88;5039249;28;20021;-82
2022/05/02 01:21:37;;;;;;;28.85;16.52;;;;;;;6.34;100.00;102084.44;5037727;28;20108;-82
2022/05/02 01:24:04;;;;;;;27.75;17.33;;;;;;;6.29;100.00;102076.78;5038483;28;20588;-83
2022/05/02 01:26:29;;;;;;;27.83;17.55;;;;;;;6.27;100.00;102070.72;5037867;28;20086;-83
2022/05/02 01:28:57;;;;;;;24.95;16.88;;;;;;;6.22;100.00;102072.84;5019784;28;20033;-83
2022/05/02 01:31:23;;;;;;;31.55;16.42;;;;;;;6.20;100.00;102085.34;5037683;28;20125;-83
2022/05/02 01:33:50;;;;;;;28.20;16.80;;;;;;;6.20;100.00;102080.06;5038048;28;20025;-83
2022/05/02 01:36:16;;;;;;;30.67;17.40;;;;;;;6.14;100.00;102081.31;5038848;28;20073;-82
2022/05/02 01:38:42;;;;;;;28.90;18.20;;;;;;;6.09;100.00;102071.94;5038706;28;20541;-82
2022/05/02 01:41:08;;;;;;;31.42;17.08;;;;;;;6.08;100.00;102073.75;5038040;28;20095;-83
2022/05/02 01:43:34;;;;;;;35.13;17.20;;;;;;;6.04;100.00;102074.94;5019390;28;20033;-83
2022/05/02 01:46:00;;;;;;;31.98;17.33;;;;;;;6.05;100.00;102071.31;5038533;28;20025;-83
2022/05/02 01:48:26;;;;;;;33.83;17.30;;;;;;;6.02;100.00;102063.53;5038190;28;20108;-83
2022/05/02 01:50:52;;;;;;;31.35;17.00;;;;;;;6.01;100.00;102071.59;5037805;28;20051;-82
2022/05/02 01:53:17;;;;;;;30.55;16.98;;;;;;;5.97;100.00;102074.47;5038555;28;20729;-83
2022/05/02 01:55:42;;;;;;;27.88;16.70;;;;;;;5.92;100.00;102049.16;5042279;28;20032;-82
2022/05/02 01:58:08;;;;;;;30.00;17.40;;;;;;;5.88;100.00;102053.81;5077382;28;20120;-82
2022/05/02 02:00:33;;;;;;;29.50;17.60;;;;;;;5.87;100.00;102057.44;5059674;28;20024;-82
2022/05/02 02:02:59;;;;;;;27.35;17.20;;;;;;;5.84;100.00;102059.41;5079014;28;20234;-83
2022/05/02 02:08:08;;;;;;;30.15;16.48;;;;;;;5.73;100.00;102063.63;5078454;28;20588;-82
2022/05/02 02:10:33;;;;;;;26.30;16.42;;;;;;;5.68;100.00;102057.75;5059298;28;20036;-82
2022/05/02 02:12:59;;;;;;;26.48;15.80;;;;;;;5.59;100.00;102050.41;5077332;28;20144;-83
2022/05/02 02:15:24;;;;;;;25.63;16.42;;;;;;;5.49;100.00;102051.97;5078636;28;20047;-82
2022/05/02 02:17:50;;;;;;;28.02;16.00;;;;;;;5.46;100.00;102062.75;5038643;28;20040;-82
2022/05/02 02:20:15;;;;;;;26.38;15.93;;;;;;;5.41;100.00;102055.09;5038635;28;20437;-82
2022/05/02 02:22:41;;;;;;;23.67;15.60;;;;;;;5.44;100.00;102062.00;5038833;28;20025;-83
2022/05/02 02:25:07;;;;;;;24.33;15.20;;;;;;;5.43;100.00;102063.78;5054043;28;20023;-83
2022/05/02 02:27:33;;;;;;;24.67;15.43;;;;;;;5.37;100.00;102059.72;5056354;28;20067;-82
2022/05/02 02:29:59;;;;;;;26.80;16.15;;;;;;;5.33;100.00;102060.00;5057350;28;20067;-84
2022/05/02 02:32:25;;;;;;;32.00;16.92;;;;;;;5.30;100.00;102058.44;5057735;28;20025;-83
2022/05/02 02:34:50;;;;;;;28.13;16.60;;;;;;;5.23;100.00;102059.78;5051796;28;20039;-83
2022/05/02 02:37:16;;;;;;;30.77;17.75;;;;;;;5.19;100.00;102056.47;5036871;28;20408;-82
2022/05/02 02:39:43;;;;;;;33.13;17.50;;;;;;;5.23;100.00;102057.13;5035552;28;20020;-83
2022/05/02 02:42:08;;;;;;;33.92;17.17;;;;;;;5.23;100.00;102055.31;5037911;28;20052;-83
2022/05/02 02:44:34;;;;;;;35.08;17.27;;;;;;;5.23;100.00;102044.72;5036500;28;20068;-83
2022/05/02 02:46:59;;;;;;;31.20;17.83;;;;;;;5.28;100.00;102049.72;5037545;28;20040;-83
2022/05/02 02:49:25;;;;;;;32.63;17.67;;;;;;;5.28;100.00;102044.44;5037504;28;20028;-83
2022/05/02 02:51:50;;;;;;;33.40;18.10;;;;;;;5.30;100.00;102047.00;5036939;28;20017;-83
2022/05/02 02:54:15;;;;;;;29.52;17.30;;;;;;;5.31;100.00;102040.72;5035901;28;20144;-84
2022/05/02 02:56:41;;;;;;;33.63;16.25;;;;;;;5.27;100.00;102036.59;5019169;28;20090;-84
2022/05/02 02:59:06;;;;;;;31.17;17.95;;;;;;;5.24;100.00;102042.91;5036734;28;20033;-83
2022/05/02 03:01:31;;;;;;;32.63;17.80;;;;;;;5.15;100.00;102031.09;5037216;28;20458;-84
2022/05/02 03:03:57;;;;;;;34.53;17.98;;;;;;;5.12;100.00;102028.63;5039064;28;20436;-83
2022/05/02 03:06:24;;;;;;;31.00;17.95;;;;;;;5.14;100.00;102031.19;5037297;28;20143;-83
2022/05/02 03:08:49;;;;;;;30.05;17.67;;;;;;;5.10;100.00;102027.06;5042116;28;20044;-83
2022/05/02 03:11:16;;;;;;;34.47;18.05;;;;;;;5.07;100.00;102028.09;5056263;28;20298;-83
2022/05/02 03:13:42;;;;;;;31.83;17.30;;;;;;;5.06;100.00;102026.41;5058113;28;20032;-84
2022/05/02 03:16:07;;;;;;;30.05;18.23;;;;;;;5.01;100.00;102026.69;5045006;28;20024;-83
2022/05/02 03:18:34;;;;;;;32.63;18.30;;;;;;;4.97;100.00;102026.94;5057757;28;20450;-83
2022/05/02 03:20:59;;;;;;;32.70;18.13;;;;;;;4.97;100.00;102034.91;5061007;28;20301;-83
2022/05/02 03:23:26;;;;;;;32.60;17.80;;;;;;;4.90;100.00;102023.84;5061350;28;20111;-84
2022/05/02 03:25:51;;;;;;;32.08;17.38;;;;;;;4.86;100.00;102031.13;5061224;28;20044;-81
2022/05/02 03:28:17;;;;;;;34.95;17.77;;;;;;;4.80;100.00;102020.94;5058258;28;20027;-81
2022/05/02 03:30:42;;;;;;;34.40;18.05;;;;;;;4.80;100.00;102028.00;5061710;28;20055;-82
2022/05/02 03:33:08;;;;;;;33.65;19.00;;;;;;;4.76;100.00;102027.34;5061609;28;20028;-82
2022/05/02 03:35:34;;;;;;;32.38;18.55;;;;;;;4.76;100.00;102015.91;5059324;28;20036;-82
2022/05/02 03:37:59;;;;;;;33.70;18.95;;;;;;;4.74;100.00;102021.28;5061259;28;20322;-82
2022/05/02 03:40:25;;;;;;;34.15;18.65;;;;;;;4.71;100.00;102016.19;5042304;28;20017;-81
2022/05/02 03:42:50;;;;;;;36.13;18.60;;;;;;;4.75;100.00;102028.31;5060379;28;20028;-82
2022/05/02 03:45:15;;;;;;;35.63;19.35;;;;;;;4.79;100.00;102016.56;5042861;28;20294;-82
2022/05/02 03:47:41;;;;;;;36.60;18.10;;;;;;;4.81;100.00;102021.78;5043212;28;20315;-84
2022/05/02 03:50:07;;;;;;;35.10;19.08;;;;;;;4.81;100.00;102024.41;5060377;28;20108;-83
2022/05/02 03:52:32;;;;;;;36.95;19.50;;;;;;;4.82;100.00;102026.09;5060261;28;20131;-82
2022/05/02 03:54:58;;;;;;;37.22;19.67;;;;;;;4.83;100.00;102019.88;5060432;28;20237;-83
2022/05/02 03:57:23;;;;;;;34.90;18.88;;;;;;;4.82;100.00;102016.38;5060164;28;20079;-82
2022/05/02 03:59:48;;;;;;;38.30;20.05;;;;;;;4.79;100.00;102021.88;5061154;28;20066;-82
2022/05/02 04:02:14;;;;;;;40.25;19.25;;;;;;;4.80;100.00;102018.28;5061586;28;20112;-83
2022/05/02 04:04:39;;;;;;;37.97;18.35;;;;;;;4.78;100.00;102027.25;5060374;28;20111;-83
2022/05/02 04:07:05;;;;;;;36.80;18.15;;;;;;;4.77;100.00;102022.88;5039828;28;20055;-82
2022/05/02 04:09:31;;;;;;;34.05;18.33;;;;;;;4.74;100.00;102023.09;5038635;28;20067;-82
2022/05/02 04:11:59;;;;;;;32.10;19.08;;;;;;;4.78;100.00;102029.91;5040069;28;20048;-82
2022/05/02 04:14:24;;;;;;;31.35;18.30;;;;;;;4.76;100.00;102021.19;5039973;28;20325;-83
2022/05/02 04:16:50;;;;;;;36.35;18.85;;;;;;;4.80;100.00;102028.00;5040370;28;20036;-83
2022/05/02 04:19:16;;;;;;;32.97;18.35;;;;;;;4.80;100.00;102022.69;5041088;28;20099;-83
2022/05/02 04:21:42;;;;;;;28.15;17.35;;;;;;;4.80;100.00;102028.88;5040173;28;20028;-82
2022/05/02 04:24:08;;;;;;;32.33;18.88;;;;;;;4.79;100.00;102024.50;5039725;28;20078;-83
2022/05/02 04:26:34;;;;;;;32.92;17.67;;;;;;;4.77;100.00;102026.41;5040854;28;20108;-83
2022/05/02 04:28:59;;;;;;;32.13;18.52;;;;;;;4.77;100.00;102029.06;5039511;28;20029;-83
2022/05/02 04:31:25;;;;;;;35.15;18.75;;;;;;;4.78;100.00;102024.59;5040628;28;20036;-83
2022/05/02 04:33:50;;;;;;;33.35;18.55;;;;;;;4.78;100.00;102025.44;5040574;28;20458;-83
2022/05/02 04:36:16;;;;;;;34.55;19.00;;;;;;;4.76;100.00;102032.63;5041545;28;20179;-83
2022/05/02 04:38:41;;;;;;;37.65;19.20;;;;;;;4.71;100.00;102024.13;5041365;28;20044;-83
2022/05/02 04:41:07;;;;;;;33.20;18.85;;;;;;;4.70;100.00;102025.09;5040227;28;20112;-83
2022/05/02 04:43:32;;;;;;;34.47;19.70;;;;;;;4.68;100.00;102019.00;5038938;28;20036;-83
2022/05/02 04:45:57;;;;;;;36.78;18.77;;;;;;;4.67;100.00;102026.09;5041785;28;20017;-83
2022/05/02 04:48:23;;;;;;;34.63;19.65;;;;;;;4.70;100.00;102021.56;5040798;28;20529;-83
2022/05/02 04:50:49;;;;;;;35.30;18.98;;;;;;;4.71;100.00;102015.34;5039623;28;20031;-83
2022/05/02 04:53:14;;;;;;;30.92;18.88;;;;;;;4.71;100.00;102024.13;5040078;28;20413;-84
2022/05/02 04:55:39;;;;;;;35.03;18.63;;;;;;;4.76;100.00;102022.03;5039927;28;20033;-83
2022/05/02 04:58:05;;;;;;;33.47;18.02;;;;;;;4.77;100.00;102025.53;5021922;28;20021;-82
2022/05/02 05:00:30;;;;;;;32.10;18.38;;;;;;;4.84;100.00;102021.59;5039991;28;20029;-84
2022/05/02 05:02:55;;;;;;;35.58;18.60;;;;;;;4.86;100.00;102028.47;5039669;28;20024;-83
2022/05/02 05:05:21;;;;;;;28.70;17.33;;;;;;;4.92;100.00;102031.69;5031568;28;20028;-82
2022/05/02 05:07:46;;;;;;;34.58;18.33;;;;;;;4.96;100.00;102028.75;5080740;28;20048;-82
2022/05/02 05:10:12;;;;;;;31.88;18.50;;;;;;;5.02;100.00;102035.47;5079809;28;20477;-82
2022/05/02 05:12:53;;;;;;;31.70;18.85;;;;;;;5.07;100.00;102029.88;5079508;28;20024;-82
2022/05/02 05:19:08;;;;;;;33.25;17.80;;;;;;;5.17;100.00;102038.94;5079469;28;20434;-83
2022/05/02 05:21:52;;;;;;;36.85;19.85;;;;;;;5.25;100.00;102046.44;5079915;28;20501;-82
2022/05/02 05:24:38;;;;;;;35.28;20.20;;;;;;;5.31;100.00;102043.38;5061422;28;20513;-83
2022/05/02 05:27:32;;;;;;;31.73;19.08;;;;;;;5.36;100.00;102038.63;5061213;28;20043;-82
2022/05/02 05:30:10;;;;;;;31.55;19.40;;;;;;;5.44;100.00;102032.84;5080051;28;20034;-83
2022/05/02 05:32:56;;;;;;;32.63;19.23;;;;;;;5.51;100.00;102039.47;5079801;28;20175;-82
2022/05/02 05:35:38;;;;;;;38.63;20.80;;;;;;;5.59;100.00;102031.88;5079410;28;20032;-83
2022/05/02 05:38:17;;;;;;;39.88;21.05;;;;;;;5.67;100.00;102029.56;5064468;28;20538;-82
2022/05/02 05:40:52;;;;;;;34.05;20.35;;;;;;;5.74;100.00;102030.88;5060015;28;20051;-83
2022/05/02 05:43:37;;;;;;;38.72;21.15;;;;;;;5.86;100.00;102031.88;5060503;28;20030;-84
2022/05/02 05:46:23;;;;;;;37.97;22.55;;;;;;;5.98;100.00;102032.88;5060552;28;20056;-84
2022/05/02 05:49:02;;;;;;;37.33;22.25;;;;;;;6.07;100.00;102032.25;5060605;28;20081;-84
2022/05/02 05:51:37;;;;;;;37.40;23.33;;;;;;;6.19;100.00;102035.91;5059037;28;20036;-84
2022/05/02 05:54:21;;;;;;;39.40;22.90;;;;;;;6.28;100.00;102037.06;5059356;28;20028;-83
2022/05/02 05:57:01;;;;;;;42.65;24.70;;;;;;;6.41;100.00;102037.09;5059279;28;20481;-84
2022/05/02 05:59:29;;;;;;;40.10;24.13;;;;;;;6.51;100.00;102039.00;5060604;28;20564;-85
2022/05/02 06:02:06;;;;;;;36.25;22.42;;;;;;;6.63;100.00;102034.66;5060485;28;20081;-83
2022/05/02 06:04:33;;;;;;;44.40;23.85;;;;;;;6.73;100.00;102041.03;5061641;28;20414;-83
2022/05/02 06:07:00;;;;;;;44.72;24.98;;;;;;;6.82;100.00;102042.22;5078109;28;20027;-84
2022/05/02 06:09:28;;;;;;;42.33;23.67;;;;;;;6.94;100.00;102043.16;5079510;28;20105;-84
2022/05/02 06:11:57;;;;;;;44.65;24.33;;;;;;;7.04;100.00;102046.88;5082960;28;20032;-84
2022/05/02 06:14:26;;;;;;;46.80;23.40;;;;;;;7.12;100.00;102034.84;5082441;28;20023;-83
2022/05/02 06:19:40;;;;;;;43.95;22.90;;;;;;;7.42;100.00;102047.75;5086707;28;20054;-85
2022/05/02 06:22:07;;;;;;;42.38;23.67;;;;;;;7.55;100.00;102045.03;5082152;28;20043;-85
2022/05/02 06:24:36;;;;;;;35.10;21.83;;;;;;;7.69;100.00;102044.91;5070404;28;20451;-84
2022/05/02 06:27:03;;;;;;;39.50;21.92;;;;;;;7.81;100.00;102046.66;5061404;28;20648;-84
2022/05/02 06:29:28;;;;;;;35.65;21.15;;;;;;;7.95;100.00;102047.44;5062451;28;20048;-84
2022/05/02 06:31:56;;;;;;;36.40;21.52;;;;;;;8.07;100.00;102045.66;5064897;28;20093;-85
2022/05/02 06:34:28;;;;;;;36.30;21.85;;;;;;;8.22;100.00;102047.16;5049806;28;20040;-84
2022/05/02 06:37:33;;;;;;;35.30;20.77;;;;;;;8.34;100.00;102050.72;5042121;28;20013;-84
2022/05/02 06:40:14;;;;;;;33.90;20.50;;;;;;;8.49;100.00;102054.91;5022532;28;20042;-84
2022/05/02 06:42:59;;;;;;;35.45;19.95;;;;;;;8.66;100.00;102045.63;5022437;28;20458;-84
2022/05/02 06:45:44;;;;;;;37.88;20.45;;;;;;;8.83;100.00;102044.28;5040316;28;20610;-84
2022/05/02 06:48:19;;;;;;;34.17;19.38;;;;;;;8.98;100.00;102047.59;5043818;28;20486;-84
2022/05/02 06:50:54;;;;;;;33.65;19.52;;;;;;;9.09;100.00;102042.22;5043034;28;20024;-84
2022/05/02 06:53:48;;;;;;;29.98;18.80;;;;;;;9.26;100.00;102042.72;5043556;28;20028;-83
2022/05/02 06:56:23;;;;;;;31.52;18.70;;;;;;;9.42;100.00;102053.84;5041819;28;20040;-83
2022/05/02 06:59:25;;;;;;;33.08;19.30;;;;;;;9.56;100.00;102046.56;5044247;28;20033;-85
2022/05/02 07:01:53;;;;;;;;;;;;;;;9.64;100.00;102044.06;5044326;28;20166;-85
2022/05/02 07:04:52;;;;;;;29.70;18.33;;;;;;;9.81;100.00;102046.22;5044833;28;20276;-84
2022/05/02 07:07:31;;;;;;;32.30;18.13;;;;;;;9.95;97.92;102037.06;5026335;28;20132;-84
2022/05/02 07:10:10;;;;;;;30.27;17.58;;;;;;;10.09;98.37;102044.75;5044293;28;20041;-84
2022/05/02 07:12:57;;;;;;;31.48;18.25;;;;;;;10.22;96.43;102041.09;5025479;28;20033;-83
2022/05/02 07:15:25;;;;;;;30.60;17.65;;;;;;;10.39;96.33;102045.88;5042469;28;20021;-83
2022/05/02 07:18:06;;;;;;;28.95;18.30;;;;;;;10.56;95.23;102043.59;5042534;28;20041;-84
2022/05/02 07:20:49;;;;;;;26.52;16.63;;;;;;;10.74;94.08;102044.69;5041866;28;20025;-83
2022/05/02 07:23:38;;;;;;;35.78;18.05;;;;;;;10.93;93.69;102035.91;5042779;28;20029;-82
2022/05/02 07:26:07;;;;;;;26.38;16.00;;;;;;;11.10;92.90;102045.13;5042970;28;20503;-82
2022/05/02 07:28:40;;;;;;;31.42;17.15;;;;;;;11.26;92.75;102044.59;5042877;28;20021;-82
2022/05/02 07:31:09;;;;;;;27.08;15.93;;;;;;;11.35;89.20;102043.81;5041711;28;20586;-83
2022/05/02 07:33:38;;;;;;;31.27;16.38;;;;;;;11.44;90.19;102036.78;5043660;28;20032;-82
2022/05/02 07:36:04;;;;;;;26.63;16.17;;;;;;;11.63;88.69;102044.00;5042445;28;20043;-82
2022/05/02 07:38:33;;;;;;;24.70;16.77;;;;;;;11.77;86.81;102048.91;5042770;28;20036;-83
2022/05/02 07:43:49;;;;;;;30.42;16.63;;;;;;;12.11;89.50;102048.53;5041391;28;20153;-82
2022/05/02 07:46:25;;;;;;;28.60;16.27;;;;;;;12.25;87.38;102049.97;5024627;28;20386;-83
2022/05/02 07:48:52;;;;;;;25.05;16.73;;;;;;;12.38;83.25;102041.63;5043136;28;20101;-84
2022/05/02 07:51:19;;;;;;;26.90;16.17;;;;;;;12.49;82.79;102046.81;5041937;28;20475;-85
2022/05/02 07:53:45;;;;;;;26.40;16.35;;;;;;;12.60;83.83;102045.81;5043216;28;20059;-83
2022/05/02 07:56:12;;;;;;;27.73;15.93;;;;;;;12.76;83.91;102047.03;5060713;28;20107;-84
2022/05/02 07:58:40;;;;;;;24.05;15.73;;;;;;;12.87;78.55;102044.19;5044026;28;20036;-83
2022/05/02 08:01:05;;;;;;;27.83;14.93;;;;;;;12.94;77.64;102044.44;5062035;28;20032;-82
2022/05/02 08:03:31;;;;;;;28.50;14.55;;;;;;;13.01;77.16;102038.31;5060404;28;20221;-83
2022/05/02 08:06:16;;;;;;;34.33;15.57;;;;;;;13.16;75.33;102048.56;5070691;28;20027;-83
2022/05/02 08:09:16;;;;;;;33.90;15.13;;;;;;;13.34;79.56;102043.28;5045474;28;20083;-82
2022/05/02 08:12:11;;;;;;;25.55;13.52;;;;;;;13.55;75.21;102041.16;5043386;28;20454;-83
2022/05/02 08:14:49;;;;;;;23.90;13.68;;;;;;;13.72;71.72;102044.88;5061783;28;20354;-84
2022/05/02 08:17:20;;;;;;;23.20;13.80;;;;;;;13.85;74.06;102040.97;5060364;28;20106;-83
2022/05/02 08:19:55;;;;;;;;;;;;;;;13.99;75.01;102041.25;5061517;28;20040;-83
2022/05/02 08:28:32;;;;;;;22.17;12.98;;;;;;;14.39;67.47;102036.38;5058287;28;20051;-83
2022/05/02 08:31:12;;;;;;;21.70;12.93;;;;;;;14.52;64.01;102036.81;5059578;28;20556;-83
2022/05/02 08:33:46;;;;;;;26.42;12.27;;;;;;;14.53;61.95;102033.13;5060942;28;20521;-83
2022/05/02 08:36:29;;;;;;;21.83;12.75;;;;;;;14.56;62.13;102048.06;5058505;28;20343;-82
2022/05/02 08:39:03;;;;;;;30.60;12.82;;;;;;;14.65;60.52;102044.50;5060259;28;20028;-83
2022/05/02 08:41:28;;;;;;;19.05;11.75;;;;;;;14.70;60.13;102041.34;5060030;28;20056;-83
2022/05/02 08:44:48;;;;;;;20.98;13.25;;;;;;;14.77;62.20;102045.06;5048822;28;20566;-83
2022/05/02 08:47:27;;;;;;;20.83;13.10;;;;;;;14.85;62.06;102046.94;4997607;28;20113;-83
2022/05/02 08:50:18;;;;;;;17.35;12.50;;;;;;;14.87;61.00;102036.88;5014507;28;20080;-83
2022/05/02 08:53:02;;;;;;;26.85;12.30;;;;;;;14.92;59.10;102043.47;5035591;28;20025;-83
2022/05/02 08:55:28;;;;;;;22.23;12.60;;;;;;;15.02;59.66;102035.28;5019476;28;20258;-83
2022/05/02 08:58:30;;;;;;;23.13;12.30;;;;;;;15.24;63.08;102041.94;5020524;28;20056;-83
2022/05/02 09:01:10;;;;;;;28.63;12.95;;;;;;;15.29;58.70;102034.22;5020438;28;20029;-82
2022/05/02 09:03:56;;;;;;;19.50;12.07;;;;;;;15.19;61.62;102036.19;5020996;28;20465;-82
2022/05/02 09:06:55;;;;;;;18.20;11.73;;;;;;;14.89;60.55;102026.81;5018135;28;20468;-83
2022/05/02 09:09:58;;;;;;;24.48;11.52;;;;;;;14.91;55.77;102035.56;5028711;28;20411;-82
2022/05/02 09:12:51;;;;;;;17.63;11.90;;;;;;;15.16;58.76;102031.13;5041393;28;20118;-83
2022/05/02 09:15:57;;;;;;;20.45;12.05;;;;;;;15.41;60.31;102026.69;5023999;28;20108;-83
2022/05/02 09:18:47;;;;;;;22.58;11.63;;;;;;;15.64;55.78;102021.50;5044809;28;20029;-83
2022/05/02 09:21:43;;;;;;;20.35;11.55;;;;;;;15.80;60.07;102030.63;5042852;28;20024;-83
2022/05/02 09:24:22;;;;;;;18.17;10.45;;;;;;;15.89;51.22;102037.72;5045682;28;20155;-83
2022/05/02 09:27:06;;;;;;;15.93;10.45;;;;;;;15.94;53.50;102035.38;5053425;28;20174;-82
2022/05/02 09:29:50;;;;;;;17.17;10.93;;;;;;;16.02;53.00;102021.91;5062309;28;20333;-84
2022/05/02 09:32:30;;;;;;;16.88;10.57;;;;;;;16.27;54.87;102027.28;5041807;28;20051;-82
2022/05/02 09:35:03;;;;;;;20.90;10.68;;;;;;;16.18;53.13;102025.63;5057988;28;20060;-82
2022/05/02 09:37:38;;;;;;;19.70;11.10;;;;;;;16.23;54.21;102026.78;5040445;28;20139;-82
2022/05/02 09:40:17;;;;;;;19.15;11.90;;;;;;;16.30;49.62;102029.63;5037847;28;20127;-83
2022/05/02 09:43:00;;;;;;;17.38;11.63;;;;;;;16.39;50.65;102017.84;5040091;28;20427;-83
2022/05/02 09:52:04;;;;;;;27.67;12.07;;;;;;;16.58;51.81;102010.38;5080720;28;20039;-83
2022/05/02 09:58:00;;;;;;;17.58;10.73;;;;;;;17.02;51.15;102001.00;5061762;28;20044;-84
2022/05/02 10:03:24;;;;;;;17.65;10.35;;;;;;;16.97;47.01;102001.50;5060228;28;20043;-84
2022/05/02 10:06:03;;;;;;;23.38;11.48;;;;;;;17.04;48.31;101997.13;5058937;28;20058;-85
2022/05/02 10:08:49;;;;;;;18.25;11.68;;;;;;;17.18;47.79;102000.94;5041386;28;20052;-85
2022/05/02 10:11:34;;;;;;;18.70;10.35;;;;;;;17.23;49.80;102003.09;5041894;28;20044;-85
2022/05/02 10:14:27;;;;;;;17.30;9.15;;;;;;;17.47;47.38;102002.13;5046684;28;20035;-85
2022/05/02 10:17:02;;;;;;;19.27;11.32;;;;;;;17.63;44.93;101995.75;5039824;28;20060;-85
2022/05/02 10:20:10;;;;;;;23.60;12.38;;;;;;;17.78;46.56;102007.47;5039914;28;20040;-82
2022/05/02 10:22:54;;;;;;;20.55;10.52;;;;;;;17.56;45.82;101995.63;5037872;28;20376;-84
2022/05/02 10:25:39;;;;;;;14.85;10.73;;;;;;;17.44;46.33;101994.34;5039358;28;20029;-84
2022/05/02 10:28:23;;;;;;;18.42;11.00;;;;;;;17.65;47.73;101997.25;5039228;28;20039;-83
2022/05/02 10:30:49;;;;;;;18.17;10.82;;;;;;;17.83;44.21;101993.41;5040040;28;20898;-83
2022/05/02 10:33:17;;;;;;;23.30;10.73;;;;;;;17.78;43.23;101993.94;5039400;28;20142;-83
2022/05/02 10:35:46;;;;;;;17.80;10.70;;;;;;;17.81;42.01;101990.88;5038411;28;20037;-84
2022/05/02 10:38:19;;;;;;;18.45;10.95;;;;;;;17.76;42.96;101996.00;5039810;28;20593;-85
2022/05/02 10:40:45;;;;;;;21.70;10.93;;;;;;;17.74;44.59;101987.22;5038728;28;20028;-85
2022/05/02 10:43:25;;;;;;;23.17;10.98;;;;;;;17.99;44.94;101987.06;5038881;28;20043;-85
2022/05/02 10:45:51;;;;;;;19.17;10.98;;;;;;;18.20;43.04;101989.06;5039429;28;20294;-85
2022/05/02 10:48:19;;;;;;;19.48;11.35;;;;;;;18.20;40.03;101992.59;5038804;28;20356;-84
2022/05/02 10:51:03;;;;;;;21.17;10.93;;;;;;;18.14;39.87;101979.81;5037048;28;20448;-84
2022/05/02 10:54:01;;;;;;;17.15;11.20;;;;;;;18.32;42.71;101968.66;5020432;28;20040;-84
2022/05/02 10:56:54;;;;;;;19.52;10.77;;;;;;;18.39;42.03;101961.47;5010040;28;20033;-84
2022/05/02 10:59:23;;;;;;;18.50;11.55;;;;;;;18.41;41.38;101967.56;5039169;28;20028;-84
2022/05/02 11:02:24;;;;;;;17.20;11.25;;;;;;;18.39;41.63;101969.59;5020842;28;20620;-84
2022/05/02 11:05:08;;;;;;;18.30;11.88;;;;;;;18.49;42.33;101966.63;5039030;28;20475;-85
2022/05/02 11:08:07;;;;;;;15.45;10.75;;;;;;;18.73;41.59;101964.66;5018521;28;20037;-84
2022/05/02 11:11:03;;;;;;;17.73;11.23;;;;;;;19.14;42.05;101967.69;5035429;28;20055;-84
2022/05/02 11:13:45;;;;;;;16.08;10.55;;;;;;;19.21;39.11;101965.06;5037463;28;20048;-85
2022/05/02 11:16:25;;;;;;;18.40;11.35;;;;;;;18.97;39.07;101967.06;5038577;28;20029;-84
2022/05/02 11:22:31;;;;;;;26.02;11.80;;;;;;;19.01;37.15;101957.56;5037585;28;20249;-85
2022/05/02 11:25:06;;;;;;;15.48;10.63;;;;;;;19.03;39.87;101957.38;5037815;28;20021;-85
2022/05/02 11:27:46;;;;;;;18.42;11.40;;;;;;;18.88;37.78;101951.97;5037892;28;20031;-86
2022/05/02 11:30:13;;;;;;;19.42;10.25;;;;;;;19.04;40.06;101958.19;5038863;28;20382;-84
2022/05/02 11:33:16;;;;;;;20.10;11.23;;;;;;;19.22;41.25;101952.38;5042180;28;20074;-85
2022/05/02 11:35:47;;;;;;;18.80;10.40;;;;;;;19.47;37.74;101939.31;5040955;28;20764;-84
2022/05/02 11:38:35;;;;;;;15.88;10.60;;;;;;;19.89;36.97;101943.88;5041945;28;20508;-85
2022/05/02 11:41:14;;;;;;;17.27;10.90;;;;;;;19.54;35.87;101938.31;5040706;28;20025;-85
2022/05/02 11:43:39;;;;;;;18.17;11.00;;;;;;;19.32;34.84;101939.38;5040574;28;20052;-84
2022/05/02 11:46:22;;;;;;;16.58;10.32;;;;;;;19.59;37.10;101940.47;5041539;28;20025;-85
2022/05/02 11:49:06;;;;;;;17.30;10.63;;;;;;;19.96;39.18;101943.94;5024432;28;20058;-84
2022/05/02 11:51:41;;;;;;;18.83;10.90;;;;;;;20.08;35.31;101930.69;5040597;28;20025;-85
2022/05/02 11:54:16;;;;;;;19.27;11.40;;;;;;;19.90;34.05;101926.56;5040640;28;20162;-84
2022/05/02 11:56:55;;;;;;;18.48;10.75;;;;;;;19.87;36.66;101932.38;5041220;28;20040;-84
2022/05/02 11:59:23;;;;;;;17.38;11.35;;;;;;;20.10;37.46;101934.03;5040464;28;20032;-84
2022/05/02 12:02:02;;;;;;;18.20;11.40;;;;;;;20.34;36.17;101934.59;5041270;28;20519;-84
2022/05/02 12:04:32;;;;;;;18.92;11.40;;;;;;;20.60;36.53;101931.19;5040393;28;20029;-84
2022/05/02 12:07:04;;;;;;;19.47;12.10;;;;;;;20.62;35.24;101926.38;5038607;28;20060;-84
2022/05/02 12:09:32;;;;;;;21.40;11.20;;;;;;;20.67;34.71;101927.50;5039383;28;20049;-84
2022/05/02 12:12:04;;;;;;;20.52;10.55;;;;;;;20.57;36.61;101929.72;5038777;28;20036;-83
2022/05/02 12:14:31;;;;;;;16.45;11.25;;;;;;;20.69;37.11;101932.72;5057902;28;20020;-83